createdAt,value
2022-09-20T00:01:54.742Z,13.01
2022-09-20T00:04:41.762Z,13.00
2022-09-20T00:07:28.757Z,13.03
2022-09-20T00:10:15.673Z,12.97
2022-09-20T00:12:56.110Z,12.95
2022-09-20T00:15:43.721Z,12.97
2022-09-20T00:18:30.712Z,12.96
2022-09-20T00:21:18.715Z,12.98
2022-09-20T00:23:59.737Z,12.96
2022-09-20T00:26:46.676Z,12.97
2022-09-20T00:29:33.697Z,12.94
2022-09-20T00:32:20.660Z,12.93
2022-09-20T00:35:19.678Z,12.95
2022-09-20T00:37:59.851Z,12.94
2022-09-20T00:40:50.671Z,12.94
2022-09-20T00:43:56.696Z,12.94
2022-09-20T00:46:51.656Z,12.89
2022-09-20T00:49:34.726Z,12.88
2022-09-20T00:52:22.644Z,12.85
2022-09-20T00:55:10.661Z,12.85
2022-09-20T00:57:51.201Z,12.90
2022-09-20T01:00:37.657Z,12.90
2022-09-20T01:03:23.004Z,12.93
2022-09-20T01:06:09.659Z,12.87
2022-09-20T01:08:59.653Z,12.93
2022-09-20T01:11:41.798Z,12.96
2022-09-20T01:14:30.633Z,13.00
2022-09-20T01:17:19.670Z,13.03
2022-09-20T01:20:14.668Z,13.08
2022-09-20T01:23:01.667Z,13.09
2022-09-20T01:26:26.640Z,13.03
2022-09-20T01:29:53.590Z,13.01
2022-09-20T01:33:05.605Z,12.98
2022-09-20T01:35:49.638Z,12.99
2022-09-20T01:38:51.612Z,12.95
2022-09-20T01:42:12.633Z,12.98
2022-09-20T01:45:03.471Z,12.99
2022-09-20T01:48:21.586Z,12.98
2022-09-20T01:51:20.221Z,12.99
2022-09-20T01:54:12.547Z,13.00
2022-09-20T01:57:34.606Z,12.98
2022-09-20T02:00:24.561Z,12.98
2022-09-20T02:03:39.552Z,12.99
2022-09-20T02:07:03.709Z,12.99
2022-09-20T02:10:24.612Z,12.98
2022-09-20T02:13:24.582Z,12.91
2022-09-20T02:16:42.158Z,12.88
2022-09-20T02:19:45.523Z,12.87
2022-09-20T02:22:51.548Z,12.90
2022-09-20T02:25:40.660Z,12.93
2022-09-20T02:28:30.529Z,12.99
2022-09-20T02:31:43.770Z,12.92
2022-09-20T02:35:07.529Z,12.93
2022-09-20T02:38:14.527Z,12.93
2022-09-20T02:41:16.518Z,12.91
2022-09-20T02:44:28.536Z,12.97
2022-09-20T02:47:44.527Z,13.00
2022-09-20T02:50:30.124Z,12.95
2022-09-20T02:53:54.522Z,12.99
2022-09-20T02:56:55.630Z,12.98
2022-09-20T02:59:53.493Z,13.06
2022-09-20T03:03:17.497Z,13.06
2022-09-20T03:26:16.429Z,12.26
2022-09-20T03:29:11.498Z,12.35
2022-09-20T03:31:51.867Z,12.40
2022-09-20T03:34:50.439Z,12.39
2022-09-20T03:37:30.721Z,12.38
2022-09-20T03:40:24.495Z,12.39
2022-09-20T03:43:30.554Z,12.41
2022-09-20T03:46:24.470Z,12.34
2022-09-20T03:49:34.467Z,12.34
2022-09-20T03:52:52.537Z,12.32
2022-09-20T03:55:39.450Z,12.32
2022-09-20T03:58:38.531Z,12.29
2022-09-20T04:01:43.462Z,12.22
2022-09-20T04:04:54.443Z,12.19
2022-09-20T04:08:06.453Z,12.21
2022-09-20T04:11:08.413Z,12.17
2022-09-20T04:14:03.185Z,12.17
2022-09-20T04:17:14.416Z,12.16
2022-09-20T04:20:13.620Z,12.14
2022-09-20T04:23:04.436Z,12.17
2022-09-20T04:25:54.547Z,12.12
2022-09-20T04:28:48.421Z,12.14
2022-09-20T04:32:17.470Z,12.22
2022-09-20T04:35:36.332Z,12.11
2022-09-20T04:38:26.385Z,12.08
2022-09-20T04:41:23.413Z,12.06
2022-09-20T04:44:29.356Z,11.97
2022-09-20T04:47:47.485Z,11.89
2022-09-20T04:50:37.381Z,11.89
2022-09-20T04:54:11.473Z,11.79
2022-09-20T04:57:18.326Z,11.83
2022-09-20T05:00:22.370Z,11.89
2022-09-20T05:03:10.638Z,11.90
2022-09-20T05:06:22.373Z,11.91
2022-09-20T05:09:28.289Z,11.89
2022-09-20T05:12:29.353Z,11.83
2022-09-20T05:15:35.315Z,11.84
2022-09-20T05:18:44.324Z,11.84
2022-09-20T05:21:56.288Z,11.82
2022-09-20T05:24:52.862Z,11.90
2022-09-20T05:27:50.314Z,11.92
2022-09-20T05:31:01.336Z,12.00
2022-09-20T05:34:08.964Z,12.07
2022-09-20T05:36:55.327Z,12.14
2022-09-20T05:39:48.425Z,12.30
2022-09-20T05:42:49.326Z,13.62
2022-09-20T05:45:50.042Z,14.97
2022-09-20T05:48:50.321Z,15.86
2022-09-20T05:51:53.026Z,16.10
2022-09-20T05:54:52.277Z,16.74
2022-09-20T05:58:01.384Z,17.17
2022-09-20T06:01:03.342Z,17.71
2022-09-20T06:03:55.717Z,18.11
2022-09-20T06:07:02.285Z,18.85
2022-09-20T06:10:14.245Z,19.47
2022-09-20T06:13:05.740Z,19.61
2022-09-20T06:16:04.222Z,19.31
2022-09-20T06:19:17.246Z,19.71
2022-09-20T06:22:08.242Z,20.61
2022-09-20T06:25:02.257Z,20.98
2022-09-20T06:27:59.401Z,21.67
2022-09-20T06:30:48.250Z,21.81
2022-09-20T06:33:37.234Z,21.58
2022-09-20T06:36:51.243Z,19.65
2022-09-20T06:40:32.206Z,21.18
2022-09-20T06:43:21.242Z,20.83
2022-09-20T06:46:01.667Z,20.03
2022-09-20T06:48:48.219Z,21.03
2022-09-20T06:51:33.880Z,21.11
2022-09-20T06:54:27.259Z,21.58
2022-09-20T06:57:07.709Z,21.83
2022-09-20T06:59:54.246Z,20.82
2022-09-20T07:02:34.652Z,20.13
2022-09-20T07:05:28.194Z,18.61
2022-09-20T07:08:15.224Z,17.60
2022-09-20T07:10:55.283Z,17.28
2022-09-20T07:13:43.221Z,18.77
2022-09-20T07:16:23.417Z,19.24
2022-09-20T07:19:03.189Z,20.86
2022-09-20T07:21:50.146Z,21.86
2022-09-20T07:24:44.152Z,23.03
2022-09-20T07:27:31.192Z,23.96
2022-09-20T07:30:12.649Z,25.43
2022-09-20T07:32:59.187Z,23.71
2022-09-20T07:35:39.262Z,23.65
2022-09-20T07:38:26.176Z,24.75
2022-09-20T07:41:08.299Z,25.69
2022-09-20T07:43:55.148Z,25.98
2022-09-20T07:46:46.177Z,25.96
2022-09-20T07:49:37.156Z,25.98
2022-09-20T07:52:17.246Z,26.86
2022-09-20T07:55:04.130Z,25.95
2022-09-20T07:57:45.705Z,26.02
2022-09-20T08:00:32.166Z,26.22
2022-09-20T08:03:12.347Z,26.54
2022-09-20T08:06:06.124Z,27.02
2022-09-20T08:08:47.389Z,25.85
2022-09-20T08:11:36.090Z,27.04
2022-09-20T08:14:28.118Z,26.04
2022-09-20T08:17:11.379Z,27.67
2022-09-20T08:20:00.110Z,27.50
2022-09-20T08:23:06.338Z,28.88
2022-09-20T08:26:03.089Z,27.62
2022-09-20T08:28:51.128Z,27.31
2022-09-20T08:31:36.970Z,28.27
2022-09-20T08:34:25.176Z,29.61
2022-09-20T08:37:05.777Z,30.88
2022-09-20T08:39:59.624Z,31.95
2022-09-20T08:42:51.099Z,29.11
2022-09-20T08:45:38.106Z,26.00
2022-09-20T08:48:23.221Z,25.69
2022-09-20T08:51:13.138Z,27.67
2022-09-20T08:54:03.085Z,26.14
2022-09-20T08:56:45.479Z,27.71
2022-09-20T08:59:36.083Z,28.49
2022-09-20T09:02:19.600Z,28.68
2022-09-20T09:05:06.094Z,29.66
2022-09-20T09:07:47.263Z,29.14
2022-09-20T09:10:34.179Z,29.57
2022-09-20T09:13:29.205Z,30.58
2022-09-20T09:16:25.848Z,28.91
2022-09-20T09:19:50.088Z,31.96
2022-09-20T09:22:50.071Z,30.61
2022-09-20T09:25:41.087Z,32.26
2022-09-20T09:28:29.061Z,32.12
2022-09-20T09:31:33.143Z,31.62
2022-09-20T09:34:32.224Z,30.18
2022-09-20T09:37:39.011Z,31.11
2022-09-20T09:40:25.257Z,29.15
2022-09-20T09:43:12.055Z,29.91
2022-09-20T09:45:52.229Z,30.21
2022-09-20T09:48:40.305Z,30.69
2022-09-20T09:51:30.020Z,30.81
2022-09-20T09:54:26.265Z,29.78
2022-09-20T09:57:37.150Z,33.62
2022-09-20T10:00:29.056Z,32.39
2022-09-20T10:03:39.091Z,33.97
2022-09-20T10:07:07.001Z,34.21
2022-09-20T10:10:31.043Z,32.94
2022-09-20T10:13:26.745Z,31.94
2022-09-20T10:16:19.010Z,32.44
2022-09-20T10:19:22.703Z,33.31
2022-09-20T10:22:21.611Z,32.15
2022-09-20T10:25:11.028Z,35.88
2022-09-20T10:27:51.105Z,32.65
2022-09-20T10:30:50.974Z,33.07
2022-09-20T10:33:38.224Z,30.75
2022-09-20T10:36:42.004Z,31.34
2022-09-20T10:39:47.984Z,33.16
2022-09-20T10:43:02.982Z,31.97
2022-09-20T10:46:32.767Z,30.62
2022-09-20T10:49:33.990Z,30.14
2022-09-20T10:52:41.063Z,34.84
2022-09-20T10:55:31.964Z,32.59
2022-09-20T10:58:40.102Z,32.15
2022-09-20T11:01:37.988Z,32.92
2022-09-20T11:04:38.989Z,30.51
2022-09-20T11:07:32.160Z,29.91
2022-09-20T11:10:31.966Z,30.77
2022-09-20T11:13:40.966Z,29.17
2022-09-20T11:16:32.000Z,28.08
2022-09-20T11:19:27.979Z,29.67
2022-09-20T11:22:31.028Z,28.61
2022-09-20T11:25:27.354Z,29.50
2022-09-20T11:28:26.945Z,30.04
2022-09-20T11:31:22.190Z,30.11
2022-09-20T11:34:21.965Z,26.48
2022-09-20T11:37:03.585Z,24.99
2022-09-20T11:40:08.970Z,23.58
2022-09-20T11:42:52.656Z,22.44
2022-09-20T11:45:41.977Z,21.77
2022-09-20T11:48:35.923Z,21.32
2022-09-20T11:51:52.890Z,21.12
2022-09-20T11:55:01.903Z,20.63
2022-09-20T11:57:42.052Z,20.43
2022-09-20T12:00:37.899Z,20.25
2022-09-20T12:04:14.230Z,20.03
2022-09-20T12:07:18.722Z,20.00
2022-09-20T12:10:15.900Z,20.22
2022-09-20T12:13:00.045Z,20.21
2022-09-20T12:15:48.923Z,20.23
2022-09-20T12:18:35.837Z,20.48
2022-09-20T12:21:26.846Z,20.48
2022-09-20T12:24:44.584Z,20.53
2022-09-20T12:27:32.867Z,20.48
2022-09-20T12:30:33.264Z,20.49
2022-09-20T12:33:27.879Z,20.48
2022-09-20T12:36:29.891Z,20.39
2022-09-20T12:39:11.104Z,20.36
2022-09-20T12:42:23.838Z,20.47
2022-09-20T12:45:17.790Z,20.51
2022-09-20T12:48:07.887Z,20.81
2022-09-20T12:51:46.635Z,20.74
2022-09-20T12:54:33.856Z,20.88
2022-09-20T12:57:39.858Z,20.82
2022-09-20T13:00:45.863Z,20.50
2022-09-20T13:03:49.982Z,20.20
2022-09-20T13:06:31.789Z,20.14
2022-09-20T13:09:13.975Z,20.06
2022-09-20T13:12:09.822Z,19.72
2022-09-20T13:14:50.475Z,19.58
2022-09-20T13:17:40.821Z,19.62
2022-09-20T13:20:25.436Z,19.34
2022-09-20T13:23:12.811Z,19.19
2022-09-20T13:26:11.828Z,19.19
2022-09-20T13:28:55.258Z,19.08
2022-09-20T13:31:44.825Z,19.04
2022-09-20T13:34:32.796Z,19.01
2022-09-20T13:37:32.344Z,19.00
2022-09-20T13:40:19.620Z,19.22
2022-09-20T13:43:23.248Z,19.27
2022-09-20T13:46:37.757Z,19.35
2022-09-20T13:49:20.955Z,19.40
2022-09-20T13:52:26.783Z,19.21
2022-09-20T13:55:13.750Z,18.99
2022-09-20T13:58:03.792Z,18.83
2022-09-20T14:00:44.123Z,18.79
2022-09-20T14:03:33.845Z,18.71
2022-09-20T14:06:21.813Z,18.73
2022-09-20T14:09:12.756Z,18.74
2022-09-20T14:11:53.972Z,18.85
2022-09-20T14:14:41.772Z,18.82
2022-09-20T14:17:24.925Z,19.04
2022-09-20T14:20:13.771Z,19.03
2022-09-20T14:23:00.717Z,19.20
2022-09-20T14:25:47.756Z,19.11
2022-09-20T14:28:34.730Z,19.15
2022-09-20T14:31:33.963Z,19.25
2022-09-20T14:34:26.739Z,19.38
2022-09-20T14:37:31.495Z,19.43
2022-09-20T14:40:29.799Z,19.39
2022-09-20T14:43:38.800Z,19.19
2022-09-20T14:46:39.853Z,19.11
2022-09-20T14:49:32.741Z,18.99
2022-09-20T14:52:40.693Z,19.06
2022-09-20T14:55:37.458Z,19.05
2022-09-20T14:58:28.719Z,18.86
2022-09-20T15:01:32.709Z,18.75
2022-09-20T15:04:25.993Z,18.69
2022-09-20T15:07:16.687Z,18.56
2022-09-20T15:09:56.817Z,18.51
2022-09-20T15:27:38.486Z,17.81
2022-09-20T15:30:23.137Z,17.94
2022-09-20T15:33:09.458Z,18.03
2022-09-20T15:35:50.262Z,18.07
2022-09-20T15:38:37.465Z,18.10
2022-09-20T15:41:17.812Z,17.97
2022-09-20T15:44:04.449Z,18.03
2022-09-20T15:46:44.818Z,17.99
2022-09-20T15:49:31.472Z,17.95
2022-09-20T15:52:19.470Z,17.97
2022-09-20T15:55:00.307Z,17.93
2022-09-20T15:57:48.434Z,17.92
2022-09-20T16:00:35.439Z,17.82
2022-09-20T16:03:16.224Z,17.65
2022-09-20T16:06:12.457Z,17.48
2022-09-20T16:08:59.531Z,17.40
2022-09-20T16:11:39.412Z,17.21
2022-09-20T16:14:26.596Z,17.18
2022-09-20T16:17:06.420Z,17.14
2022-09-20T16:19:55.393Z,17.08
2022-09-20T16:22:42.423Z,16.96
2022-09-20T16:25:36.374Z,16.87
2022-09-20T16:28:16.800Z,16.77
2022-09-20T16:31:13.412Z,16.72
2022-09-20T16:34:00.378Z,16.55
2022-09-20T16:36:50.358Z,16.49
2022-09-20T16:39:31.145Z,16.38
2022-09-20T16:42:20.393Z,16.33
2022-09-20T16:45:00.780Z,16.27
2022-09-20T16:47:47.359Z,16.20
2022-09-20T16:50:34.364Z,16.15
2022-09-20T16:53:21.366Z,16.09
2022-09-20T16:56:08.370Z,16.06
2022-09-20T16:58:48.531Z,16.09
2022-09-20T17:01:36.344Z,16.07
2022-09-20T17:04:21.128Z,16.02
2022-09-20T17:07:08.346Z,15.87
2022-09-20T17:09:48.549Z,15.81
2022-09-20T17:12:40.313Z,15.73
2022-09-20T17:15:27.366Z,15.67
2022-09-20T17:18:12.364Z,15.61
2022-09-20T17:21:02.355Z,15.55
2022-09-20T17:23:50.994Z,15.51
2022-09-20T17:26:47.355Z,15.52
2022-09-20T17:29:34.399Z,15.42
2022-09-20T17:32:15.016Z,15.44
2022-09-20T17:35:02.323Z,15.48
2022-09-20T17:37:49.297Z,15.41
2022-09-20T17:40:36.365Z,15.44
2022-09-20T17:43:23.334Z,15.44
2022-09-20T17:46:12.310Z,15.41
2022-09-20T17:48:55.636Z,15.37
2022-09-20T17:51:44.297Z,15.41
2022-09-20T17:54:31.336Z,15.43
2022-09-20T17:57:11.690Z,15.40
2022-09-20T17:59:58.320Z,15.29
2022-09-20T18:02:39.334Z,15.22
2022-09-20T18:05:26.242Z,15.29
2022-09-20T18:08:13.290Z,15.25
2022-09-20T18:11:03.383Z,15.21
2022-09-20T18:13:50.283Z,15.27
2022-09-20T18:16:37.321Z,15.13
2022-09-20T18:19:17.819Z,15.18
2022-09-20T18:22:04.256Z,15.15
2022-09-20T18:24:44.585Z,15.21
2022-09-20T18:27:31.238Z,15.09
2022-09-20T18:30:18.240Z,15.09
2022-09-20T18:32:58.404Z,14.91
2022-09-20T18:35:48.269Z,14.92
2022-09-20T18:38:28.473Z,14.78
2022-09-20T18:41:15.225Z,14.72
2022-09-20T18:43:55.368Z,14.71
2022-09-20T18:46:44.361Z,14.78
2022-09-20T18:49:32.249Z,14.76
2022-09-20T18:52:13.163Z,14.76
2022-09-20T18:55:02.219Z,14.66
2022-09-20T18:57:49.250Z,14.70
2022-09-20T19:00:29.354Z,14.61
2022-09-20T19:03:26.349Z,14.66
2022-09-20T19:06:11.308Z,14.66
2022-09-20T19:09:21.203Z,14.52
2022-09-20T19:12:11.357Z,14.40
2022-09-20T19:15:10.227Z,14.44
2022-09-20T19:18:40.322Z,14.40
2022-09-20T19:21:58.182Z,14.32
2022-09-20T19:25:10.215Z,14.34
2022-09-20T19:28:04.196Z,14.33
2022-09-20T19:30:48.192Z,14.19
2022-09-20T19:33:36.196Z,14.08
2022-09-20T19:36:17.567Z,14.18
2022-09-20T19:39:21.191Z,14.05
2022-09-20T19:42:20.102Z,14.04
2022-09-20T19:45:17.232Z,13.98
2022-09-20T19:48:28.337Z,13.86
2022-09-20T19:51:19.158Z,13.82
2022-09-20T19:54:06.706Z,13.82
2022-09-20T19:56:55.203Z,13.78
2022-09-20T19:59:35.929Z,13.71
2022-09-20T20:02:25.168Z,13.78
2022-09-20T20:05:12.177Z,13.70
2022-09-20T20:08:24.420Z,13.65
2022-09-20T20:11:43.188Z,13.50
2022-09-20T20:14:27.470Z,13.39
2022-09-20T20:17:43.169Z,13.27
2022-09-20T20:20:49.162Z,13.19
2022-09-20T20:23:51.517Z,13.09
2022-09-20T20:26:39.096Z,13.04
2022-09-20T20:29:26.123Z,12.98
2022-09-20T20:32:06.194Z,13.02
2022-09-20T20:34:53.093Z,12.96
2022-09-20T20:37:33.246Z,12.88
2022-09-20T20:40:20.231Z,12.86
2022-09-20T20:43:10.120Z,12.81
2022-09-20T20:45:58.222Z,12.80
2022-09-20T20:48:45.139Z,12.80
2022-09-20T20:51:27.268Z,12.81
2022-09-20T20:54:14.109Z,12.78
2022-09-20T20:57:01.065Z,12.80
2022-09-20T20:59:48.098Z,12.83
2022-09-20T21:02:28.552Z,12.94
2022-09-20T21:05:15.083Z,13.00
2022-09-20T21:07:55.498Z,12.98
2022-09-20T21:10:42.062Z,12.90
2022-09-20T21:13:22.557Z,12.89
2022-09-20T21:16:16.081Z,12.94
2022-09-20T21:19:04.084Z,13.06
2022-09-20T21:21:46.196Z,12.94
2022-09-20T21:24:33.070Z,12.82
2022-09-20T21:27:27.001Z,12.73
2022-09-20T21:30:15.074Z,12.62
2022-09-20T21:32:56.980Z,12.61
2022-09-20T21:35:44.047Z,12.56
2022-09-20T21:38:31.052Z,12.41
2022-09-20T21:41:15.826Z,12.51
2022-09-20T21:44:07.068Z,12.48
2022-09-20T21:46:48.505Z,12.43
2022-09-20T21:49:35.330Z,12.38
2022-09-20T21:52:15.564Z,12.32
2022-09-20T21:55:02.039Z,12.23
2022-09-20T21:57:49.011Z,12.22
2022-09-20T22:00:36.026Z,12.16
2022-09-20T22:03:23.101Z,12.11
2022-09-20T22:06:02.985Z,12.12
2022-09-20T22:09:00.018Z,12.19
2022-09-20T22:11:50.038Z,12.20
2022-09-20T22:14:30.363Z,12.28
2022-09-20T22:17:16.992Z,12.42
2022-09-20T22:19:58.227Z,12.50
2022-09-20T22:22:44.983Z,12.58
2022-09-20T22:25:25.436Z,12.60
2022-09-20T22:28:11.948Z,12.61
2022-09-20T22:30:59.032Z,12.64
2022-09-20T22:33:45.998Z,12.64
2022-09-20T22:36:36.010Z,12.64
2022-09-20T22:39:24.989Z,12.62
2022-09-20T22:42:05.513Z,12.70
2022-09-20T22:44:51.961Z,12.68
2022-09-20T22:47:32.307Z,12.73
2022-09-20T22:50:18.917Z,12.63
2022-09-20T22:53:05.944Z,12.67
2022-09-20T22:55:52.913Z,12.56
2022-09-20T22:58:41.910Z,12.55
2022-09-20T23:01:35.042Z,12.56
2022-09-20T23:04:25.957Z,12.52
2022-09-20T23:07:06.130Z,12.46
2022-09-20T23:09:52.949Z,12.46
2022-09-20T23:12:33.023Z,12.47
2022-09-20T23:15:19.949Z,12.49
2022-09-20T23:18:06.941Z,12.45
2022-09-20T23:20:47.289Z,12.54
2022-09-20T23:23:33.883Z,12.48
2022-09-20T23:26:23.895Z,12.53
2022-09-20T23:29:13.978Z,12.38
2022-09-20T23:32:00.933Z,12.27
2022-09-20T23:34:47.924Z,12.27
2022-09-20T23:37:34.888Z,12.27
2022-09-20T23:40:22.948Z,12.16
2022-09-20T23:43:03.715Z,12.17
2022-09-20T23:45:50.949Z,12.17
2022-09-20T23:48:38.837Z,12.13
2022-09-20T23:51:28.911Z,12.06
2022-09-20T23:54:15.841Z,11.91
2022-09-20T23:57:02.844Z,11.83
2022-09-20T23:59:49.896Z,11.79
